sensor_id;sensor_type;location;lat;lon;timestamp;pressure;altitude;pressure_sealevel;temperature;humidity
38612;BME280;24368;52.156;20.788;2023-06-22T00:02:08;100481.86;;;19.74;100.00
38612;BME280;24368;52.156;20.788;2023-06-22T00:07:09;100488.55;;;19.68;100.00
38612;BME280;24368;52.156;20.788;2023-06-22T00:12:10;100480.34;;;19.85;100.00
38612;BME280;24368;52.156;20.788;2023-06-22T00:17:11;100472.79;;;19.88;100.00
38612;BME280;24368;52.156;20.788;2023-06-22T00:22:12;100474.77;;;19.83;100.00
38612;BME280;24368;52.156;20.788;2023-06-22T00:27:13;100473.98;;;19.85;100.00
38612;BME280;24368;52.156;20.788;2023-06-22T00:32:14;100471.30;;;19.73;100.00
38612;BME280;24368;52.156;20.788;2023-06-22T00:37:15;100470.29;;;19.66;100.00
38612;BME280;24368;52.156;20.788;2023-06-22T00:42:17;100467.60;;;19.69;100.00
38612;BME280;24368;52.156;20.788;2023-06-22T00:47:18;100471.16;;;19.77;100.00
38612;BME280;24368;52.156;20.788;2023-06-22T00:52:21;100471.46;;;19.85;100.00
38612;BME280;24368;52.156;20.788;2023-06-22T00:57:28;100467.35;;;19.68;100.00
38612;BME280;24368;52.156;20.788;2023-06-22T01:02:29;100455.91;;;19.73;100.00
38612;BME280;24368;52.156;20.788;2023-06-22T01:07:42;100444.91;;;19.79;100.00
38612;BME280;24368;52.156;20.788;2023-06-22T01:12:59;100436.16;;;19.71;100.00
38612;BME280;24368;52.156;20.788;2023-06-22T01:18:04;100436.88;;;19.66;100.00
38612;BME280;24368;52.156;20.788;2023-06-22T01:28:33;100442.46;;;19.50;100.00
38612;BME280;24368;52.156;20.788;2023-06-22T01:33:39;100429.59;;;19.51;100.00
38612;BME280;24368;52.156;20.788;2023-06-22T01:38:41;100435.89;;;19.41;100.00
38612;BME280;24368;52.156;20.788;2023-06-22T01:43:43;100450.77;;;19.13;100.00
38612;BME280;24368;52.156;20.788;2023-06-22T01:48:46;100461.86;;;18.83;100.00
38612;BME280;24368;52.156;20.788;2023-06-22T01:53:47;100459.48;;;18.90;100.00
38612;BME280;24368;52.156;20.788;2023-06-22T01:58:59;100467.89;;;19.07;100.00
38612;BME280;24368;52.156;20.788;2023-06-22T02:04:09;100478.55;;;19.08;100.00
38612;BME280;24368;52.156;20.788;2023-06-22T02:09:16;100493.44;;;19.00;100.00
38612;BME280;24368;52.156;20.788;2023-06-22T02:14:18;100493.15;;;19.04;100.00
38612;BME280;24368;52.156;20.788;2023-06-22T02:19:27;100493.39;;;19.08;100.00
38612;BME280;24368;52.156;20.788;2023-06-22T02:24:28;100506.34;;;19.04;100.00
38612;BME280;24368;52.156;20.788;2023-06-22T02:29:31;100508.98;;;19.01;100.00
38612;BME280;24368;52.156;20.788;2023-06-22T02:34:32;100516.21;;;18.92;100.00
38612;BME280;24368;52.156;20.788;2023-06-22T02:39:34;100524.86;;;18.98;100.00
38612;BME280;24368;52.156;20.788;2023-06-22T02:44:36;100535.64;;;19.01;100.00
38612;BME280;24368;52.156;20.788;2023-06-22T02:49:37;100538.36;;;19.04;100.00
38612;BME280;24368;52.156;20.788;2023-06-22T02:54:38;100543.27;;;19.09;100.00
38612;BME280;24368;52.156;20.788;2023-06-22T02:59:40;100549.23;;;19.11;100.00
38612;BME280;24368;52.156;20.788;2023-06-22T03:04:44;100551.27;;;19.14;100.00
38612;BME280;24368;52.156;20.788;2023-06-22T03:09:45;100559.75;;;19.16;100.00
38612;BME280;24368;52.156;20.788;2023-06-22T03:14:46;100560.95;;;19.18;100.00
38612;BME280;24368;52.156;20.788;2023-06-22T03:19:47;100568.09;;;19.19;100.00
38612;BME280;24368;52.156;20.788;2023-06-22T03:24:48;100558.56;;;19.19;100.00
38612;BME280;24368;52.156;20.788;2023-06-22T03:29:49;100567.35;;;19.20;100.00
38612;BME280;24368;52.156;20.788;2023-06-22T03:34:50;100569.16;;;19.25;100.00
38612;BME280;24368;52.156;20.788;2023-06-22T03:39:52;100575.10;;;19.27;100.00
38612;BME280;24368;52.156;20.788;2023-06-22T03:44:53;100585.56;;;19.26;100.00
38612;BME280;24368;52.156;20.788;2023-06-22T03:49:54;100588.00;;;19.26;100.00
38612;BME280;24368;52.156;20.788;2023-06-22T03:54:56;100595.00;;;19.22;100.00
38612;BME280;24368;52.156;20.788;2023-06-22T03:59:57;100604.52;;;19.23;100.00
38612;BME280;24368;52.156;20.788;2023-06-22T04:04:58;100606.42;;;19.28;100.00
38612;BME280;24368;52.156;20.788;2023-06-22T04:10:00;100605.27;;;19.32;100.00
38612;BME280;24368;52.156;20.788;2023-06-22T04:15:07;100612.74;;;19.36;100.00
38612;BME280;24368;52.156;20.788;2023-06-22T04:20:08;100617.68;;;19.33;100.00
38612;BME280;24368;52.156;20.788;2023-06-22T04:25:09;100617.31;;;19.36;100.00
38612;BME280;24368;52.156;20.788;2023-06-22T04:30:32;100623.60;;;19.45;100.00
38612;BME280;24368;52.156;20.788;2023-06-22T04:36:01;100624.10;;;19.41;100.00
38612;BME280;24368;52.156;20.788;2023-06-22T04:41:12;100622.36;;;19.40;100.00
38612;BME280;24368;52.156;20.788;2023-06-22T04:46:15;100620.83;;;19.37;100.00
38612;BME280;24368;52.156;20.788;2023-06-22T04:51:28;100617.98;;;19.42;100.00
38612;BME280;24368;52.156;20.788;2023-06-22T04:56:32;100614.90;;;19.53;100.00
38612;BME280;24368;52.156;20.788;2023-06-22T05:01:33;100616.58;;;19.56;100.00
38612;BME280;24368;52.156;20.788;2023-06-22T05:06:35;100614.07;;;19.56;100.00
38612;BME280;24368;52.156;20.788;2023-06-22T05:11:37;100618.23;;;19.69;100.00
38612;BME280;24368;52.156;20.788;2023-06-22T05:16:40;100615.70;;;19.75;100.00
38612;BME280;24368;52.156;20.788;2023-06-22T05:21:42;100624.86;;;19.84;100.00
38612;BME280;24368;52.156;20.788;2023-06-22T05:26:43;100628.56;;;19.89;100.00
38612;BME280;24368;52.156;20.788;2023-06-22T05:31:44;100628.41;;;20.02;100.00
38612;BME280;24368;52.156;20.788;2023-06-22T05:36:45;100638.73;;;20.07;100.00
38612;BME280;24368;52.156;20.788;2023-06-22T05:41:46;100635.34;;;20.08;100.00
38612;BME280;24368;52.156;20.788;2023-06-22T05:46:47;100646.29;;;20.09;100.00
38612;BME280;24368;52.156;20.788;2023-06-22T05:51:49;100647.59;;;20.15;100.00
38612;BME280;24368;52.156;20.788;2023-06-22T05:56:50;100645.02;;;20.23;100.00
38612;BME280;24368;52.156;20.788;2023-06-22T06:01:51;100646.77;;;20.29;100.00
38612;BME280;24368;52.156;20.788;2023-06-22T06:06:52;100660.73;;;20.30;100.00
38612;BME280;24368;52.156;20.788;2023-06-22T06:11:53;100667.91;;;20.30;100.00
38612;BME280;24368;52.156;20.788;2023-06-22T06:16:54;100674.90;;;20.43;100.00
38612;BME280;24368;52.156;20.788;2023-06-22T06:21:55;100674.48;;;20.51;100.00
38612;BME280;24368;52.156;20.788;2023-06-22T06:26:56;100672.52;;;20.63;100.00
38612;BME280;24368;52.156;20.788;2023-06-22T06:31:57;100672.98;;;20.61;100.00
38612;BME280;24368;52.156;20.788;2023-06-22T06:36:59;100671.37;;;20.58;100.00
38612;BME280;24368;52.156;20.788;2023-06-22T06:42:00;100668.54;;;20.66;100.00
38612;BME280;24368;52.156;20.788;2023-06-22T06:47:01;100666.46;;;20.86;100.00
38612;BME280;24368;52.156;20.788;2023-06-22T06:52:02;100666.52;;;20.85;100.00
38612;BME280;24368;52.156;20.788;2023-06-22T06:57:03;100667.15;;;20.91;100.00
38612;BME280;24368;52.156;20.788;2023-06-22T07:02:05;100663.17;;;20.99;100.00
38612;BME280;24368;52.156;20.788;2023-06-22T07:07:06;100656.88;;;21.11;100.00
38612;BME280;24368;52.156;20.788;2023-06-22T07:12:07;100659.77;;;21.17;100.00
38612;BME280;24368;52.156;20.788;2023-06-22T07:17:08;100668.96;;;21.22;100.00
38612;BME280;24368;52.156;20.788;2023-06-22T07:22:09;100676.64;;;21.24;100.00
38612;BME280;24368;52.156;20.788;2023-06-22T07:27:10;100680.59;;;21.32;100.00
38612;BME280;24368;52.156;20.788;2023-06-22T07:32:13;100682.69;;;21.41;100.00
38612;BME280;24368;52.156;20.788;2023-06-22T07:37:14;100683.86;;;21.51;100.00
38612;BME280;24368;52.156;20.788;2023-06-22T07:42:15;100686.82;;;21.66;100.00
38612;BME280;24368;52.156;20.788;2023-06-22T07:47:19;100697.61;;;21.71;100.00
38612;BME280;24368;52.156;20.788;2023-06-22T07:52:20;100691.95;;;21.81;100.00
38612;BME280;24368;52.156;20.788;2023-06-22T07:57:22;100700.50;;;21.94;100.00
38612;BME280;24368;52.156;20.788;2023-06-22T08:02:23;100698.02;;;22.02;100.00
38612;BME280;24368;52.156;20.788;2023-06-22T08:07:24;100699.31;;;22.11;100.00
38612;BME280;24368;52.156;20.788;2023-06-22T08:12:25;100695.85;;;22.20;100.00
38612;BME280;24368;52.156;20.788;2023-06-22T08:17:26;100694.77;;;22.24;97.09
38612;BME280;24368;52.156;20.788;2023-06-22T08:22:27;100692.97;;;22.32;97.18
38612;BME280;24368;52.156;20.788;2023-06-22T08:27:30;100684.50;;;22.37;94.25
38612;BME280;24368;52.156;20.788;2023-06-22T08:32:32;100684.48;;;22.46;93.22
38612;BME280;24368;52.156;20.788;2023-06-22T08:37:34;100687.05;;;22.59;91.87
38612;BME280;24368;52.156;20.788;2023-06-22T08:42:36;100692.02;;;22.63;89.13
38612;BME280;24368;52.156;20.788;2023-06-22T08:47:39;100700.10;;;22.75;88.04
38612;BME280;24368;52.156;20.788;2023-06-22T08:52:42;100697.95;;;22.82;85.23
38612;BME280;24368;52.156;20.788;2023-06-22T08:57:43;100698.37;;;22.89;84.48
38612;BME280;24368;52.156;20.788;2023-06-22T09:02:45;100702.67;;;22.98;81.77
38612;BME280;24368;52.156;20.788;2023-06-22T09:07:47;100713.89;;;23.09;77.13
38612;BME280;24368;52.156;20.788;2023-06-22T09:12:48;100711.07;;;23.31;76.75
38612;BME280;24368;52.156;20.788;2023-06-22T09:17:49;100708.30;;;23.36;74.56
38612;BME280;24368;52.156;20.788;2023-06-22T09:22:50;100704.99;;;23.48;72.91
38612;BME280;24368;52.156;20.788;2023-06-22T09:27:51;100697.59;;;23.58;74.60
38612;BME280;24368;52.156;20.788;2023-06-22T09:32:52;100689.47;;;23.59;74.97
38612;BME280;24368;52.156;20.788;2023-06-22T09:37:54;100693.09;;;23.65;73.49
38612;BME280;24368;52.156;20.788;2023-06-22T09:42:55;100693.77;;;23.70;73.12
38612;BME280;24368;52.156;20.788;2023-06-22T09:47:56;100696.62;;;23.81;71.28
38612;BME280;24368;52.156;20.788;2023-06-22T09:52:57;100692.28;;;23.87;74.04
38612;BME280;24368;52.156;20.788;2023-06-22T09:57:58;100687.41;;;24.00;75.90
38612;BME280;24368;52.156;20.788;2023-06-22T10:02:59;100694.98;;;24.24;76.28
38612;BME280;24368;52.156;20.788;2023-06-22T10:08:00;100690.31;;;24.28;76.10
38612;BME280;24368;52.156;20.788;2023-06-22T10:13:09;100692.06;;;24.31;74.99
38612;BME280;24368;52.156;20.788;2023-06-22T10:18:12;100697.69;;;24.30;74.97
38612;BME280;24368;52.156;20.788;2023-06-22T10:23:13;100691.00;;;24.32;76.93
38612;BME280;24368;52.156;20.788;2023-06-22T10:28:15;100691.17;;;24.52;76.62
38612;BME280;24368;52.156;20.788;2023-06-22T10:33:17;100679.91;;;24.55;77.69
38612;BME280;24368;52.156;20.788;2023-06-22T10:38:18;100672.29;;;24.71;79.04
38612;BME280;24368;52.156;20.788;2023-06-22T10:43:19;100679.92;;;24.86;77.12
38612;BME280;24368;52.156;20.788;2023-06-22T10:48:20;100678.90;;;25.07;74.74
38612;BME280;24368;52.156;20.788;2023-06-22T10:53:21;100671.25;;;25.21;73.63
38612;BME280;24368;52.156;20.788;2023-06-22T10:58:23;100662.42;;;25.39;75.95
38612;BME280;24368;52.156;20.788;2023-06-22T11:03:24;100661.21;;;25.44;75.55
38612;BME280;24368;52.156;20.788;2023-06-22T11:08:25;100662.14;;;25.63;72.67
38612;BME280;24368;52.156;20.788;2023-06-22T11:13:26;100653.02;;;25.78;71.90
38612;BME280;24368;52.156;20.788;2023-06-22T11:18:27;100656.30;;;26.05;70.81
38612;BME280;24368;52.156;20.788;2023-06-22T11:23:28;100648.05;;;26.08;68.95
38612;BME280;24368;52.156;20.788;2023-06-22T11:28:29;100645.95;;;26.41;68.19
38612;BME280;24368;52.156;20.788;2023-06-22T11:33:30;100643.85;;;26.62;64.75
38612;BME280;24368;52.156;20.788;2023-06-22T11:38:31;100654.90;;;26.79;63.89
38612;BME280;24368;52.156;20.788;2023-06-22T11:43:32;100651.40;;;26.97;62.97
38612;BME280;24368;52.156;20.788;2023-06-22T11:48:34;100652.81;;;27.07;63.04
38612;BME280;24368;52.156;20.788;2023-06-22T11:53:35;100650.11;;;27.17;61.91
38612;BME280;24368;52.156;20.788;2023-06-22T11:58:36;100655.08;;;27.33;62.58
38612;BME280;24368;52.156;20.788;2023-06-22T12:03:37;100653.94;;;27.06;59.50
38612;BME280;24368;52.156;20.788;2023-06-22T12:08:38;100643.55;;;26.94;62.30
38612;BME280;24368;52.156;20.788;2023-06-22T12:13:40;100632.40;;;27.07;61.38
38612;BME280;24368;52.156;20.788;2023-06-22T12:18:41;100629.10;;;27.02;59.54
38612;BME280;24368;52.156;20.788;2023-06-22T12:23:42;100625.55;;;26.95;61.60
38612;BME280;24368;52.156;20.788;2023-06-22T12:28:43;100622.10;;;26.72;62.43
38612;BME280;24368;52.156;20.788;2023-06-22T12:33:44;100615.38;;;26.57;63.26
38612;BME280;24368;52.156;20.788;2023-06-22T12:38:45;100616.05;;;26.59;65.14
38612;BME280;24368;52.156;20.788;2023-06-22T12:43:47;100612.45;;;26.53;62.66
38612;BME280;24368;52.156;20.788;2023-06-22T12:48:48;100617.02;;;26.58;64.13
38612;BME280;24368;52.156;20.788;2023-06-22T12:53:49;100628.73;;;26.84;61.71
38612;BME280;24368;52.156;20.788;2023-06-22T12:58:50;100626.32;;;26.96;59.24
38612;BME280;24368;52.156;20.788;2023-06-22T13:03:51;100618.81;;;26.89;61.39
38612;BME280;24368;52.156;20.788;2023-06-22T13:08:52;100609.55;;;26.96;61.19
38612;BME280;24368;52.156;20.788;2023-06-22T13:13:53;100616.11;;;27.00;59.59
38612;BME280;24368;52.156;20.788;2023-06-22T13:18:54;100616.05;;;26.83;59.41
38612;BME280;24368;52.156;20.788;2023-06-22T13:23:55;100611.03;;;26.91;56.77
38612;BME280;24368;52.156;20.788;2023-06-22T13:28:56;100611.36;;;27.18;57.42
38612;BME280;24368;52.156;20.788;2023-06-22T13:33:58;100616.06;;;27.21;54.97
38612;BME280;24368;52.156;20.788;2023-06-22T13:38:59;100606.91;;;27.35;54.29
38612;BME280;24368;52.156;20.788;2023-06-22T13:44:00;100606.07;;;27.46;56.07
38612;BME280;24368;52.156;20.788;2023-06-22T13:49:01;100600.46;;;27.47;56.57
38612;BME280;24368;52.156;20.788;2023-06-22T13:54:02;100598.59;;;27.42;54.89
38612;BME280;24368;52.156;20.788;2023-06-22T13:59:03;100601.30;;;27.33;54.46
38612;BME280;24368;52.156;20.788;2023-06-22T14:04:05;100605.54;;;27.47;52.91
38612;BME280;24368;52.156;20.788;2023-06-22T14:09:06;100599.23;;;27.61;51.48
38612;BME280;24368;52.156;20.788;2023-06-22T14:14:08;100596.98;;;27.81;50.38
38612;BME280;24368;52.156;20.788;2023-06-22T14:19:09;100592.48;;;27.84;50.01
38612;BME280;24368;52.156;20.788;2023-06-22T14:24:10;100598.08;;;27.82;49.87
38612;BME280;24368;52.156;20.788;2023-06-22T14:29:11;100593.94;;;27.88;50.73
38612;BME280;24368;52.156;20.788;2023-06-22T14:34:12;100589.62;;;27.85;52.65
38612;BME280;24368;52.156;20.788;2023-06-22T14:39:13;100585.96;;;27.67;53.89
38612;BME280;24368;52.156;20.788;2023-06-22T14:44:15;100590.91;;;27.52;52.90
38612;BME280;24368;52.156;20.788;2023-06-22T14:49:16;100586.55;;;27.57;52.65
38612;BME280;24368;52.156;20.788;2023-06-22T14:54:17;100586.20;;;27.47;54.12
38612;BME280;24368;52.156;20.788;2023-06-22T14:59:18;100584.09;;;27.41;53.54
38612;BME280;24368;52.156;20.788;2023-06-22T15:04:19;100581.56;;;27.18;54.18
38612;BME280;24368;52.156;20.788;2023-06-22T15:09:20;100571.89;;;27.15;53.63
38612;BME280;24368;52.156;20.788;2023-06-22T15:14:22;100562.48;;;27.20;53.00
38612;BME280;24368;52.156;20.788;2023-06-22T15:19:23;100562.54;;;27.27;53.86
38612;BME280;24368;52.156;20.788;2023-06-22T15:24:24;100561.45;;;27.10;54.03
38612;BME280;24368;52.156;20.788;2023-06-22T15:29:25;100561.86;;;27.01;52.63
38612;BME280;24368;52.156;20.788;2023-06-22T15:34:27;100567.91;;;27.20;53.06
38612;BME280;24368;52.156;20.788;2023-06-22T15:39:28;100566.52;;;27.29;54.48
38612;BME280;24368;52.156;20.788;2023-06-22T15:44:29;100563.27;;;27.35;55.58
38612;BME280;24368;52.156;20.788;2023-06-22T15:49:30;100559.63;;;27.23;54.75
38612;BME280;24368;52.156;20.788;2023-06-22T15:54:31;100563.87;;;27.12;55.03
38612;BME280;24368;52.156;20.788;2023-06-22T15:59:33;100565.39;;;26.84;54.46
38612;BME280;24368;52.156;20.788;2023-06-22T16:04:34;100561.58;;;26.70;54.21
38612;BME280;24368;52.156;20.788;2023-06-22T16:09:37;100559.61;;;26.59;54.66
38612;BME280;24368;52.156;20.788;2023-06-22T16:14:38;100563.27;;;26.56;55.24
38612;BME280;24368;52.156;20.788;2023-06-22T16:19:41;100567.63;;;26.53;54.72
38612;BME280;24368;52.156;20.788;2023-06-22T16:24:42;100564.05;;;26.45;54.66
38612;BME280;24368;52.156;20.788;2023-06-22T16:29:43;100563.56;;;26.33;53.31
38612;BME280;24368;52.156;20.788;2023-06-22T16:34:44;100557.69;;;26.35;54.07
38612;BME280;24368;52.156;20.788;2023-06-22T16:39:48;100554.30;;;26.32;54.18
38612;BME280;24368;52.156;20.788;2023-06-22T16:44:49;100551.96;;;26.28;55.08
38612;BME280;24368;52.156;20.788;2023-06-22T16:49:50;100548.22;;;26.26;52.46
38612;BME280;24368;52.156;20.788;2023-06-22T16:54:55;100547.97;;;26.25;50.76
38612;BME280;24368;52.156;20.788;2023-06-22T16:59:57;100545.40;;;26.23;50.49
38612;BME280;24368;52.156;20.788;2023-06-22T17:04:58;100540.09;;;26.23;50.88
38612;BME280;24368;52.156;20.788;2023-06-22T17:09:59;100538.02;;;26.16;51.85
38612;BME280;24368;52.156;20.788;2023-06-22T17:15:01;100531.20;;;26.12;49.69
38612;BME280;24368;52.156;20.788;2023-06-22T17:20:03;100529.56;;;26.07;49.73
38612;BME280;24368;52.156;20.788;2023-06-22T17:25:06;100527.83;;;26.03;50.58
38612;BME280;24368;52.156;20.788;2023-06-22T17:30:10;100521.57;;;26.01;50.52
38612;BME280;24368;52.156;20.788;2023-06-22T17:35:18;100515.36;;;25.98;50.53
38612;BME280;24368;52.156;20.788;2023-06-22T17:40:21;100514.80;;;25.88;51.03
38612;BME280;24368;52.156;20.788;2023-06-22T17:45:24;100514.62;;;25.83;51.44
38612;BME280;24368;52.156;20.788;2023-06-22T17:50:25;100510.52;;;25.78;52.74
38612;BME280;24368;52.156;20.788;2023-06-22T17:55:26;100498.77;;;25.73;52.69
38612;BME280;24368;52.156;20.788;2023-06-22T18:00:28;100494.20;;;25.67;53.97
38612;BME280;24368;52.156;20.788;2023-06-22T18:05:31;100499.59;;;25.54;56.41
38612;BME280;24368;52.156;20.788;2023-06-22T18:10:36;100503.82;;;25.50;55.07
38612;BME280;24368;52.156;20.788;2023-06-22T18:15:39;100502.65;;;25.44;54.83
38612;BME280;24368;52.156;20.788;2023-06-22T18:20:40;100502.20;;;25.32;58.11
38612;BME280;24368;52.156;20.788;2023-06-22T18:25:43;100498.88;;;25.10;61.86
38612;BME280;24368;52.156;20.788;2023-06-22T18:30:46;100492.30;;;24.93;63.36
38612;BME280;24368;52.156;20.788;2023-06-22T18:35:49;100491.93;;;24.74;63.62
38612;BME280;24368;52.156;20.788;2023-06-22T18:40:52;100486.46;;;24.58;64.61
38612;BME280;24368;52.156;20.788;2023-06-22T18:45:53;100483.50;;;24.43;66.81
38612;BME280;24368;52.156;20.788;2023-06-22T18:51:10;100489.84;;;24.21;67.59
38612;BME280;24368;52.156;20.788;2023-06-22T18:56:13;100489.10;;;23.97;69.26
38612;BME280;24368;52.156;20.788;2023-06-22T19:01:18;100493.52;;;23.86;70.15
38612;BME280;24368;52.156;20.788;2023-06-22T19:12:21;100502.64;;;23.69;73.61
38612;BME280;24368;52.156;20.788;2023-06-22T19:17:22;100497.21;;;23.62;74.03
38612;BME280;24368;52.156;20.788;2023-06-22T19:22:56;100501.91;;;23.46;74.50
38612;BME280;24368;52.156;20.788;2023-06-22T19:27:58;100509.86;;;23.14;75.20
38612;BME280;24368;52.156;20.788;2023-06-22T19:32:59;100505.50;;;23.01;75.65
38612;BME280;24368;52.156;20.788;2023-06-22T19:38:00;100499.95;;;23.04;77.15
38612;BME280;24368;52.156;20.788;2023-06-22T19:43:01;100505.00;;;23.14;79.37
38612;BME280;24368;52.156;20.788;2023-06-22T19:48:02;100507.04;;;23.00;78.79
38612;BME280;24368;52.156;20.788;2023-06-22T19:53:07;100506.41;;;22.99;79.62
38612;BME280;24368;52.156;20.788;2023-06-22T19:58:11;100501.90;;;22.95;81.10
38612;BME280;24368;52.156;20.788;2023-06-22T20:03:16;100498.16;;;22.89;81.84
38612;BME280;24368;52.156;20.788;2023-06-22T20:08:19;100493.98;;;22.79;83.13
38612;BME280;24368;52.156;20.788;2023-06-22T20:13:21;100493.86;;;22.66;82.78
38612;BME280;24368;52.156;20.788;2023-06-22T20:18:22;100493.39;;;22.56;83.34
38612;BME280;24368;52.156;20.788;2023-06-22T20:23:23;100479.86;;;22.58;81.53
38612;BME280;24368;52.156;20.788;2023-06-22T20:33:43;100471.73;;;22.42;81.02
38612;BME280;24368;52.156;20.788;2023-06-22T20:38:44;100472.36;;;22.29;82.31
38612;BME280;24368;52.156;20.788;2023-06-22T20:43:52;100474.88;;;22.06;82.21
38612;BME280;24368;52.156;20.788;2023-06-22T20:48:54;100472.75;;;21.90;83.22
38612;BME280;24368;52.156;20.788;2023-06-22T20:53:55;100465.86;;;21.88;84.61
38612;BME280;24368;52.156;20.788;2023-06-22T20:58:56;100457.77;;;21.83;87.13
38612;BME280;24368;52.156;20.788;2023-06-22T21:03:57;100454.20;;;21.73;90.51
38612;BME280;24368;52.156;20.788;2023-06-22T21:08:58;100452.52;;;21.53;91.05
38612;BME280;24368;52.156;20.788;2023-06-22T21:14:00;100451.50;;;21.51;94.32
38612;BME280;24368;52.156;20.788;2023-06-22T21:19:01;100461.92;;;21.25;95.13
38612;BME280;24368;52.156;20.788;2023-06-22T21:24:02;100451.43;;;21.27;97.65
38612;BME280;24368;52.156;20.788;2023-06-22T21:29:03;100446.04;;;21.06;96.66
38612;BME280;24368;52.156;20.788;2023-06-22T21:34:04;100443.13;;;20.99;99.58
38612;BME280;24368;52.156;20.788;2023-06-22T21:39:05;100445.20;;;21.16;99.57
38612;BME280;24368;52.156;20.788;2023-06-22T21:44:06;100448.71;;;20.82;99.51
38612;BME280;24368;52.156;20.788;2023-06-22T21:49:07;100436.98;;;20.88;100.00
38612;BME280;24368;52.156;20.788;2023-06-22T21:54:08;100438.50;;;20.90;99.65
38612;BME280;24368;52.156;20.788;2023-06-22T21:59:10;100458.20;;;20.68;99.54
38612;BME280;24368;52.156;20.788;2023-06-22T22:04:11;100468.09;;;20.53;100.00
38612;BME280;24368;52.156;20.788;2023-06-22T22:09:13;100480.66;;;20.59;99.76
38612;BME280;24368;52.156;20.788;2023-06-22T22:14:14;100481.34;;;20.39;100.00
38612;BME280;24368;52.156;20.788;2023-06-22T22:19:15;100468.73;;;20.65;100.00
38612;BME280;24368;52.156;20.788;2023-06-22T22:24:16;100455.52;;;20.57;100.00
38612;BME280;24368;52.156;20.788;2023-06-22T22:29:17;100464.80;;;20.34;100.00
38612;BME280;24368;52.156;20.788;2023-06-22T22:34:18;100480.52;;;20.03;100.00
38612;BME280;24368;52.156;20.788;2023-06-22T22:39:36;100479.73;;;20.13;100.00
38612;BME280;24368;52.156;20.788;2023-06-22T22:44:39;100478.00;;;20.11;100.00
38612;BME280;24368;52.156;20.788;2023-06-22T22:49:40;100474.64;;;19.98;100.00
38612;BME280;24368;52.156;20.788;2023-06-22T22:54:42;100478.10;;;19.98;100.00
38612;BME280;24368;52.156;20.788;2023-06-22T22:59:43;100463.46;;;20.13;100.00
38612;BME280;24368;52.156;20.788;2023-06-22T23:04:54;100458.83;;;20.08;100.00
38612;BME280;24368;52.156;20.788;2023-06-22T23:09:55;100457.31;;;19.97;100.00
38612;BME280;24368;52.156;20.788;2023-06-22T23:14:57;100451.09;;;19.91;100.00
38612;BME280;24368;52.156;20.788;2023-06-22T23:19:58;100447.57;;;19.89;100.00
38612;BME280;24368;52.156;20.788;2023-06-22T23:24:59;100442.11;;;19.89;100.00
38612;BME280;24368;52.156;20.788;2023-06-22T23:30:00;100426.63;;;19.82;100.00
38612;BME280;24368;52.156;20.788;2023-06-22T23:35:05;100417.41;;;19.87;99.98
38612;BME280;24368;52.156;20.788;2023-06-22T23:40:13;100398.84;;;19.86;99.93
38612;BME280;24368;52.156;20.788;2023-06-22T23:45:19;100391.83;;;19.84;99.85
38612;BME280;24368;52.156;20.788;2023-06-22T23:50:20;100391.80;;;19.75;99.88
38612;BME280;24368;52.156;20.788;2023-06-22T23:55:24;100392.88;;;19.71;99.87
